createdAt,value
2023-05-14T00:01:42.250Z,10.60
2023-05-14T00:04:09.278Z,10.60
2023-05-14T00:06:36.440Z,10.60
2023-05-14T00:09:04.434Z,10.50
2023-05-14T00:11:31.432Z,10.50
2023-05-14T00:18:17.899Z,10.40
2023-05-14T00:20:44.937Z,10.10
2023-05-14T00:23:11.956Z,10.10
2023-05-14T00:25:39.006Z,10.10
2023-05-14T00:28:06.179Z,10.10
2023-05-14T00:30:33.360Z,10.20
2023-05-14T00:33:00.433Z,10.10
2023-05-14T00:35:27.559Z,10.00
2023-05-14T00:37:55.153Z,9.90
2023-05-14T00:40:27.111Z,9.90
2023-05-14T00:42:55.043Z,10.00
2023-05-14T00:45:22.518Z,10.00
2023-05-14T00:47:49.914Z,10.00
2023-05-14T00:50:18.039Z,10.00
2023-05-14T00:52:45.224Z,10.00
2023-05-14T00:55:16.543Z,9.90
2023-05-14T00:57:44.561Z,9.90
2023-05-14T01:00:11.973Z,9.90
2023-05-14T01:02:39.153Z,9.80
2023-05-14T01:05:07.298Z,9.60
2023-05-14T01:07:56.957Z,9.50
2023-05-14T01:10:49.369Z,9.40
2023-05-14T01:13:43.511Z,9.30
2023-05-14T01:16:14.565Z,9.20
2023-05-14T01:18:43.197Z,9.20
2023-05-14T01:21:34.981Z,9.20
2023-05-14T01:24:02.049Z,9.10
2023-05-14T01:26:31.550Z,9.00
2023-05-14T01:29:13.379Z,9.00
2023-05-14T01:31:43.836Z,8.90
2023-05-14T01:34:12.459Z,8.80
2023-05-14T01:36:41.480Z,8.80
2023-05-14T01:39:10.680Z,8.80
2023-05-14T01:41:39.541Z,8.80
2023-05-14T01:44:06.792Z,8.80
2023-05-14T01:46:34.127Z,8.80
2023-05-14T01:49:01.419Z,8.80
2023-05-14T01:51:28.594Z,8.80
2023-05-14T01:53:55.677Z,8.80
2023-05-14T01:56:24.044Z,8.90
2023-05-14T01:58:51.227Z,8.90
2023-05-14T02:01:18.368Z,8.90
2023-05-14T02:03:45.944Z,8.80
2023-05-14T02:06:12.980Z,8.70
2023-05-14T02:08:40.162Z,8.70
2023-05-14T02:11:07.310Z,8.60
2023-05-14T02:13:34.398Z,8.50
2023-05-14T02:16:01.551Z,8.60
2023-05-14T02:18:28.858Z,8.60
2023-05-14T02:20:56.204Z,8.60
2023-05-14T02:23:34.193Z,8.70
2023-05-14T02:26:05.279Z,8.70
2023-05-14T02:28:32.378Z,8.70
2023-05-14T02:31:00.816Z,8.70
2023-05-14T02:33:28.450Z,8.70
2023-05-14T02:35:55.519Z,8.70
2023-05-14T02:38:23.502Z,8.50
2023-05-14T02:40:50.490Z,8.40
2023-05-14T02:43:17.627Z,8.20
2023-05-14T02:45:44.685Z,8.10
2023-05-14T02:48:12.466Z,8.10
2023-05-14T02:50:39.584Z,8.00
2023-05-14T02:53:06.637Z,7.90
2023-05-14T02:55:33.921Z,7.90
2023-05-14T02:58:00.945Z,7.90
2023-05-14T03:00:28.200Z,7.90
2023-05-14T03:02:55.867Z,7.90
2023-05-14T03:05:23.327Z,8.00
2023-05-14T03:07:53.676Z,8.00
2023-05-14T03:10:20.919Z,8.10
2023-05-14T03:12:48.178Z,8.20
2023-05-14T03:15:15.369Z,8.30
2023-05-14T03:17:42.465Z,8.40
2023-05-14T03:20:10.856Z,8.50
2023-05-14T03:22:37.916Z,8.50
2023-05-14T03:25:05.204Z,8.50
2023-05-14T03:27:32.258Z,8.60
2023-05-14T03:29:59.269Z,8.60
2023-05-14T03:32:26.512Z,8.70
2023-05-14T03:34:53.830Z,8.80
2023-05-14T03:37:21.576Z,8.90
2023-05-14T03:39:48.522Z,9.00
2023-05-14T03:42:15.607Z,9.00
2023-05-14T03:44:42.612Z,9.00
2023-05-14T03:47:09.674Z,9.00
2023-05-14T03:49:36.813Z,9.10
2023-05-14T03:52:04.045Z,9.20
2023-05-14T03:54:31.220Z,9.30
2023-05-14T04:01:17.289Z,9.50
2023-05-14T04:03:44.562Z,9.60
2023-05-14T04:06:13.449Z,9.60
2023-05-14T04:08:40.607Z,9.60
2023-05-14T04:11:08.185Z,9.60
2023-05-14T04:13:35.477Z,9.60
2023-05-14T04:16:02.757Z,9.60
2023-05-14T04:18:30.076Z,9.70
2023-05-14T04:20:57.039Z,9.70
2023-05-14T04:23:24.156Z,9.80
2023-05-14T04:25:51.183Z,9.80
2023-05-14T04:28:18.271Z,9.80
2023-05-14T04:30:45.886Z,9.80
2023-05-14T04:33:12.928Z,9.90
2023-05-14T04:35:39.923Z,9.90
2023-05-14T04:38:06.990Z,9.90
2023-05-14T04:40:33.984Z,10.00
2023-05-14T04:43:01.249Z,10.00
2023-05-14T04:45:28.408Z,10.10
2023-05-14T04:47:55.586Z,10.10
2023-05-14T04:50:22.834Z,10.10
2023-05-14T04:52:49.901Z,10.20
2023-05-14T04:55:18.236Z,10.20
2023-05-14T04:57:45.307Z,10.20
2023-05-14T05:00:13.341Z,10.20
2023-05-14T05:02:40.468Z,10.10
2023-05-14T05:05:07.771Z,10.00
2023-05-14T05:07:35.187Z,9.80
2023-05-14T05:10:02.857Z,9.70
2023-05-14T05:12:30.375Z,9.60
2023-05-14T05:14:58.135Z,9.60
2023-05-14T05:17:25.928Z,9.60
2023-05-14T05:19:53.091Z,9.70
2023-05-14T05:22:20.367Z,9.80
2023-05-14T05:24:49.791Z,9.90
2023-05-14T05:27:17.046Z,10.00
2023-05-14T05:29:44.996Z,10.10
2023-05-14T05:32:12.034Z,10.20
2023-05-14T05:34:39.281Z,10.30
2023-05-14T05:37:06.366Z,10.30
2023-05-14T05:39:35.255Z,10.40
2023-05-14T05:42:02.988Z,10.40
2023-05-14T05:44:30.005Z,10.60
2023-05-14T05:46:57.905Z,10.60
2023-05-14T05:49:24.935Z,10.70
2023-05-14T05:51:52.166Z,10.70
2023-05-14T05:54:19.180Z,10.80
2023-05-14T05:56:46.202Z,10.80
2023-05-14T05:59:13.246Z,10.80
2023-05-14T06:01:41.452Z,10.70
2023-05-14T06:04:08.507Z,10.60
2023-05-14T06:06:35.605Z,10.40
2023-05-14T06:09:02.724Z,10.40
2023-05-14T06:11:29.767Z,10.40
2023-05-14T06:13:56.788Z,10.40
2023-05-14T06:16:24.875Z,10.40
2023-05-14T06:18:52.990Z,10.50
2023-05-14T06:21:20.044Z,10.50
2023-05-14T06:23:47.365Z,10.50
2023-05-14T06:26:14.390Z,10.60
2023-05-14T06:28:41.464Z,10.60
2023-05-14T06:31:08.616Z,10.80
2023-05-14T06:33:35.661Z,11.00
2023-05-14T06:36:05.441Z,11.20
2023-05-14T06:42:31.560Z,11.50
2023-05-14T06:44:58.733Z,11.70
2023-05-14T06:47:25.826Z,11.90
2023-05-14T06:49:52.856Z,12.00
2023-05-14T06:52:19.862Z,12.20
2023-05-14T06:54:46.886Z,12.30
2023-05-14T06:57:13.961Z,12.40
2023-05-14T06:59:40.960Z,12.50
2023-05-14T07:06:06.883Z,12.90
2023-05-14T07:08:34.025Z,12.80
2023-05-14T07:11:01.119Z,12.70
2023-05-14T07:13:28.890Z,12.80
2023-05-14T07:15:56.274Z,13.00
2023-05-14T07:18:24.209Z,13.00
2023-05-14T07:20:51.254Z,13.00
2023-05-14T07:23:19.882Z,12.90
2023-05-14T07:25:47.099Z,13.10
2023-05-14T07:28:14.119Z,13.20
2023-05-14T07:30:41.169Z,13.30
2023-05-14T07:33:08.245Z,13.40
2023-05-14T07:35:35.444Z,13.50
2023-05-14T07:38:03.195Z,13.60
2023-05-14T07:40:30.188Z,13.70
2023-05-14T07:42:57.155Z,13.60
2023-05-14T07:45:24.159Z,13.70
2023-05-14T07:47:52.306Z,13.80
2023-05-14T07:50:19.645Z,14.00
2023-05-14T07:52:46.629Z,14.10
2023-05-14T07:55:13.819Z,14.10
2023-05-14T07:57:40.821Z,14.00
2023-05-14T08:00:08.398Z,13.80
2023-05-14T08:02:42.740Z,13.70
2023-05-14T08:05:10.235Z,13.70
2023-05-14T08:07:37.180Z,14.00
2023-05-14T08:10:04.481Z,14.10
2023-05-14T08:12:31.907Z,14.30
2023-05-14T08:14:58.910Z,14.40
2023-05-14T08:17:26.286Z,14.40
2023-05-14T08:19:53.983Z,14.50
2023-05-14T08:22:21.858Z,14.60
2023-05-14T08:24:48.999Z,14.60
2023-05-14T08:27:16.757Z,14.50
2023-05-14T08:29:43.775Z,14.50
2023-05-14T08:32:22.191Z,14.70
2023-05-14T08:34:50.805Z,14.70
2023-05-14T08:37:17.803Z,14.80
2023-05-14T08:39:44.963Z,15.00
2023-05-14T08:42:13.950Z,15.20
2023-05-14T08:44:50.310Z,15.30
2023-05-14T08:47:21.342Z,15.40
2023-05-14T08:49:54.393Z,15.50
2023-05-14T08:52:22.970Z,15.60
2023-05-14T08:54:51.398Z,15.70
2023-05-14T08:57:20.312Z,15.70
2023-05-14T08:59:47.702Z,15.90
2023-05-14T09:02:17.457Z,16.00
2023-05-14T09:04:44.970Z,16.10
2023-05-14T09:07:12.144Z,16.30
2023-05-14T09:09:39.376Z,16.50
2023-05-14T09:12:06.874Z,16.50
2023-05-14T09:14:33.965Z,16.70
2023-05-14T09:17:01.346Z,16.90
2023-05-14T09:19:28.740Z,16.90
2023-05-14T09:21:59.223Z,16.90
2023-05-14T09:24:29.210Z,17.00
2023-05-14T09:26:57.063Z,16.80
2023-05-14T09:29:29.107Z,16.70
2023-05-14T09:31:57.396Z,16.40
2023-05-14T09:34:32.522Z,16.30
2023-05-14T09:37:04.093Z,16.30
2023-05-14T09:39:32.184Z,16.30
2023-05-14T09:41:59.722Z,16.30
2023-05-14T09:44:27.391Z,16.10
2023-05-14T09:46:54.719Z,16.00
2023-05-14T09:49:22.437Z,15.90
2023-05-14T09:51:50.214Z,15.90
2023-05-14T09:54:17.659Z,16.00
2023-05-14T09:56:45.366Z,15.80
2023-05-14T09:59:12.436Z,15.60
2023-05-14T10:01:42.626Z,15.50
2023-05-14T10:04:11.334Z,15.40
2023-05-14T10:06:39.983Z,15.20
2023-05-14T10:09:14.100Z,15.10
2023-05-14T10:11:45.420Z,15.10
2023-05-14T10:14:25.047Z,15.00
2023-05-14T10:16:54.231Z,14.80
2023-05-14T10:19:23.885Z,14.70
2023-05-14T10:21:56.335Z,14.70
2023-05-14T10:24:24.816Z,14.50
2023-05-14T10:26:52.632Z,14.40
2023-05-14T10:29:19.628Z,14.30
2023-05-14T10:31:51.708Z,14.30
2023-05-14T10:34:38.947Z,14.20
2023-05-14T10:37:08.836Z,14.20
2023-05-14T10:40:12.228Z,14.10
2023-05-14T10:42:43.577Z,14.00
2023-05-14T10:45:13.321Z,13.90
2023-05-14T10:47:47.580Z,13.80
2023-05-14T10:50:15.970Z,13.80
2023-05-14T10:52:44.673Z,13.70
2023-05-14T10:55:16.827Z,13.80
2023-05-14T10:57:45.883Z,13.80
2023-05-14T11:00:14.720Z,13.90
2023-05-14T11:02:44.023Z,13.90
2023-05-14T11:05:33.788Z,13.90
2023-05-14T11:08:01.473Z,13.80
2023-05-14T11:10:31.312Z,13.80
2023-05-14T11:12:59.111Z,13.80
2023-05-14T11:15:28.517Z,13.80
2023-05-14T11:17:56.040Z,13.80
2023-05-14T11:20:23.606Z,13.80
2023-05-14T11:22:53.602Z,13.90
2023-05-14T11:25:21.844Z,14.10
2023-05-14T11:27:50.624Z,14.20
2023-05-14T11:30:19.554Z,14.20
2023-05-14T11:32:48.134Z,14.30
2023-05-14T11:35:15.772Z,14.50
2023-05-14T11:37:43.645Z,14.60
2023-05-14T11:40:16.876Z,14.60
2023-05-14T11:42:44.006Z,14.60
2023-05-14T11:45:12.788Z,14.70
2023-05-14T11:47:41.922Z,14.80
2023-05-14T11:50:09.805Z,14.80
2023-05-14T11:52:41.597Z,14.70
2023-05-14T11:55:12.872Z,14.70
2023-05-14T11:57:41.183Z,14.60
2023-05-14T12:00:21.320Z,14.70
2023-05-14T12:02:52.559Z,14.60
2023-05-14T12:05:19.795Z,14.50
2023-05-14T12:07:47.663Z,14.40
2023-05-14T12:10:14.940Z,14.40
2023-05-14T12:12:47.101Z,14.30
2023-05-14T12:15:16.197Z,14.30
2023-05-14T12:17:43.534Z,14.30
2023-05-14T12:20:11.735Z,14.30
2023-05-14T12:22:39.461Z,14.40
2023-05-14T12:25:13.485Z,14.50
2023-05-14T12:27:41.547Z,14.60
2023-05-14T12:32:41.303Z,14.90
2023-05-14T12:35:09.261Z,14.90
2023-05-14T12:37:37.584Z,14.90
2023-05-14T12:40:11.743Z,14.80
2023-05-14T12:42:38.776Z,14.80
2023-05-14T12:45:08.151Z,14.70
2023-05-14T12:47:36.451Z,14.70
2023-05-14T12:50:04.179Z,14.70
2023-05-14T12:55:01.492Z,14.60
2023-05-14T12:57:29.880Z,14.60
2023-05-14T12:59:57.540Z,14.50
2023-05-14T13:02:24.628Z,14.40
2023-05-14T13:04:51.692Z,14.40
2023-05-14T13:07:18.856Z,14.30
2023-05-14T13:09:45.839Z,14.20
2023-05-14T13:12:12.955Z,14.30
2023-05-14T13:14:39.980Z,14.30
2023-05-14T13:17:08.326Z,14.30
2023-05-14T13:19:35.501Z,14.30
2023-05-14T13:22:02.572Z,14.10
2023-05-14T13:24:29.679Z,14.00
2023-05-14T13:26:56.815Z,14.00
2023-05-14T13:29:24.678Z,13.90
2023-05-14T13:31:51.867Z,13.90
2023-05-14T13:34:19.273Z,13.90
2023-05-14T13:36:47.272Z,13.90
2023-05-14T13:39:14.613Z,13.90
2023-05-14T13:41:42.107Z,14.00
2023-05-14T13:44:09.103Z,13.90
2023-05-14T13:46:36.362Z,14.00
2023-05-14T13:49:03.473Z,13.90
2023-05-14T13:51:31.440Z,14.00
2023-05-14T13:53:58.487Z,14.10
2023-05-14T13:56:26.048Z,14.30
2023-05-14T13:58:53.125Z,14.40
2023-05-14T14:01:20.181Z,14.50
2023-05-14T14:03:47.388Z,14.50
2023-05-14T14:06:14.477Z,14.70
2023-05-14T14:08:41.486Z,14.70
2023-05-14T14:11:08.538Z,14.70
2023-05-14T14:13:35.643Z,14.70
2023-05-14T14:16:03.645Z,14.60
2023-05-14T14:18:30.824Z,14.60
2023-05-14T14:20:58.071Z,14.60
2023-05-14T14:23:25.215Z,14.60
2023-05-14T14:25:52.205Z,14.70
2023-05-14T14:28:19.244Z,14.90
2023-05-14T14:30:46.334Z,15.20
2023-05-14T14:33:13.444Z,15.30
2023-05-14T14:35:40.691Z,15.40
2023-05-14T14:38:07.785Z,15.50
2023-05-14T14:40:35.256Z,15.40
2023-05-14T14:43:02.323Z,15.40
2023-05-14T14:45:29.319Z,15.40
2023-05-14T14:48:22.184Z,15.50
2023-05-14T14:50:49.426Z,15.70
2023-05-14T14:53:16.428Z,15.90
2023-05-14T14:55:43.461Z,16.00
2023-05-14T14:58:10.506Z,16.00
2023-05-14T15:00:37.907Z,16.10
2023-05-14T15:03:05.036Z,16.20
2023-05-14T15:05:32.178Z,16.40
2023-05-14T15:07:59.207Z,16.40
2023-05-14T15:10:28.720Z,16.30
2023-05-14T15:12:59.693Z,16.20
2023-05-14T15:15:26.936Z,16.10
2023-05-14T15:17:54.036Z,16.00
2023-05-14T15:20:21.054Z,16.10
2023-05-14T15:22:49.182Z,16.10
2023-05-14T15:25:16.180Z,16.10
2023-05-14T15:27:43.251Z,16.00
2023-05-14T15:30:11.068Z,15.90
2023-05-14T15:32:38.202Z,15.90
2023-05-14T15:35:05.948Z,16.00
2023-05-14T15:37:45.452Z,16.10
2023-05-14T15:40:12.962Z,16.20
2023-05-14T15:42:44.278Z,16.20
2023-05-14T15:45:12.727Z,16.20
2023-05-14T15:47:43.245Z,16.20
2023-05-14T15:50:10.807Z,16.20
2023-05-14T15:52:39.252Z,16.30
2023-05-14T15:55:06.773Z,16.40
2023-05-14T15:57:34.415Z,16.50
2023-05-14T16:00:01.875Z,16.50
2023-05-14T16:02:33.370Z,16.50
2023-05-14T16:05:00.529Z,16.50
2023-05-14T16:07:27.777Z,16.50
2023-05-14T16:09:54.959Z,16.50
2023-05-14T16:12:22.654Z,16.40
2023-05-14T16:14:50.347Z,16.30
2023-05-14T16:17:17.455Z,16.30
2023-05-14T16:19:44.507Z,16.30
2023-05-14T16:22:11.609Z,16.30
2023-05-14T16:24:38.741Z,16.20
2023-05-14T16:27:06.308Z,16.20
2023-05-14T16:29:33.418Z,16.20
2023-05-14T16:32:00.598Z,16.20
2023-05-14T16:34:27.712Z,16.10
2023-05-14T16:36:54.868Z,16.00
2023-05-14T16:39:21.892Z,15.90
2023-05-14T16:41:48.843Z,15.80
2023-05-14T16:44:16.059Z,15.70
2023-05-14T16:46:43.240Z,15.60
2023-05-14T16:49:10.272Z,15.50
2023-05-14T16:51:42.535Z,15.30
2023-05-14T16:54:09.797Z,15.30
2023-05-14T16:56:37.096Z,15.30
2023-05-14T16:59:04.128Z,15.20
2023-05-14T17:01:31.538Z,15.10
2023-05-14T17:03:58.706Z,15.10
2023-05-14T17:06:25.848Z,15.10
2023-05-14T17:08:52.995Z,15.00
2023-05-14T17:11:21.157Z,14.90
2023-05-14T17:13:48.408Z,14.90
2023-05-14T17:16:16.131Z,14.80
2023-05-14T17:18:43.524Z,14.80
2023-05-14T17:21:10.525Z,14.80
2023-05-14T17:23:37.742Z,14.90
2023-05-14T17:26:04.814Z,14.80
2023-05-14T17:28:31.874Z,14.80
2023-05-14T17:30:58.883Z,14.90
2023-05-14T17:33:25.932Z,14.90
2023-05-14T17:35:52.969Z,14.90
2023-05-14T17:38:20.341Z,14.90
2023-05-14T17:40:47.542Z,14.80
2023-05-14T17:43:14.907Z,14.80
2023-05-14T17:45:54.008Z,14.90
2023-05-14T17:48:24.041Z,14.80
2023-05-14T17:50:52.064Z,14.70
2023-05-14T17:53:19.121Z,14.70
2023-05-14T17:55:46.678Z,14.60
2023-05-14T17:58:15.609Z,14.60
2023-05-14T18:00:43.941Z,14.50
2023-05-14T18:03:11.600Z,14.40
2023-05-14T18:05:38.927Z,14.40
2023-05-14T18:08:06.016Z,14.40
2023-05-14T18:10:33.049Z,14.40
2023-05-14T18:13:00.053Z,14.50
2023-05-14T18:15:27.581Z,14.50
2023-05-14T18:17:54.915Z,14.40
2023-05-14T18:20:22.141Z,14.40
2023-05-14T18:22:52.508Z,14.40
2023-05-14T18:25:19.777Z,14.50
2023-05-14T18:27:47.133Z,14.50
2023-05-14T18:30:15.549Z,14.50
2023-05-14T18:32:44.689Z,14.50
2023-05-14T18:35:12.883Z,14.50
2023-05-14T18:37:40.170Z,14.40
2023-05-14T18:40:07.899Z,14.40
2023-05-14T18:42:35.392Z,14.40
2023-05-14T18:45:04.239Z,14.40
2023-05-14T18:47:31.903Z,14.30
2023-05-14T18:50:01.858Z,14.30
2023-05-14T18:52:29.525Z,14.20
2023-05-14T18:54:56.799Z,14.20
2023-05-14T18:57:23.991Z,14.10
2023-05-14T18:59:51.039Z,14.10
2023-05-14T19:02:18.115Z,14.00
2023-05-14T19:04:52.404Z,13.90
2023-05-14T19:07:21.256Z,13.90
2023-05-14T19:09:48.661Z,13.80
2023-05-14T19:12:16.258Z,13.80
2023-05-14T19:14:43.380Z,13.90
2023-05-14T19:17:10.464Z,13.80
2023-05-14T19:19:37.901Z,13.70
2023-05-14T19:22:05.235Z,13.80
2023-05-14T19:24:32.273Z,13.80
2023-05-14T19:26:59.316Z,13.70
2023-05-14T19:29:26.352Z,13.70
2023-05-14T19:31:56.179Z,13.60
2023-05-14T19:34:23.621Z,13.60
2023-05-14T19:36:50.905Z,13.70
2023-05-14T19:39:17.918Z,13.60
2023-05-14T19:41:45.196Z,13.50
2023-05-14T19:44:12.289Z,13.40
2023-05-14T19:47:06.115Z,13.30
2023-05-14T19:49:33.179Z,13.20
2023-05-14T19:56:27.001Z,13.20
2023-05-14T19:58:54.571Z,13.20
2023-05-14T20:01:21.931Z,13.30
2023-05-14T20:03:48.994Z,13.30
2023-05-14T20:06:17.658Z,13.30
2023-05-14T20:08:47.870Z,13.30
2023-05-14T20:11:45.619Z,13.30
2023-05-14T20:14:12.624Z,13.30
2023-05-14T20:16:39.768Z,13.30
2023-05-14T20:19:06.799Z,13.30
2023-05-14T20:21:33.891Z,13.20
2023-05-14T20:24:00.929Z,13.10
2023-05-14T20:26:27.928Z,13.00
2023-05-14T20:28:55.714Z,13.00
2023-05-14T20:31:22.842Z,12.80
2023-05-14T20:33:50.072Z,12.80
2023-05-14T20:36:17.168Z,12.80
2023-05-14T20:38:44.224Z,12.70
2023-05-14T20:42:02.324Z,12.70
2023-05-14T20:44:29.406Z,12.70
2023-05-14T20:46:56.407Z,12.70
2023-05-14T20:49:23.440Z,12.70
2023-05-14T20:51:50.546Z,12.70
2023-05-14T20:54:17.600Z,12.70
2023-05-14T20:56:44.675Z,12.70
2023-05-14T20:59:11.688Z,12.60
2023-05-14T21:01:38.817Z,12.60
2023-05-14T21:04:06.318Z,12.60
2023-05-14T21:06:33.548Z,12.60
2023-05-14T21:09:00.605Z,12.50
2023-05-14T21:11:27.596Z,12.50
2023-05-14T21:13:54.648Z,12.50
2023-05-14T21:16:22.036Z,12.40
2023-05-14T21:18:49.136Z,12.50
2023-05-14T21:21:16.206Z,12.50
2023-05-14T21:23:43.379Z,12.50
2023-05-14T21:26:10.624Z,12.50
2023-05-14T21:28:37.629Z,12.40
2023-05-14T21:31:04.671Z,12.40
2023-05-14T21:33:32.018Z,12.40
2023-05-14T21:35:59.100Z,12.40
2023-05-14T21:38:26.160Z,12.40
2023-05-14T21:40:53.160Z,12.40
2023-05-14T21:43:20.241Z,12.40
2023-05-14T21:46:04.539Z,12.30
2023-05-14T21:48:31.730Z,12.30
2023-05-14T21:50:58.751Z,12.30
2023-05-14T21:53:25.809Z,12.30
2023-05-14T21:55:53.584Z,12.30
2023-05-14T21:58:21.334Z,12.30
2023-05-14T22:00:48.324Z,12.30
2023-05-14T22:03:15.704Z,12.30
2023-05-14T22:05:42.820Z,12.30
2023-05-14T22:08:11.272Z,12.20
2023-05-14T22:10:38.267Z,12.20
2023-05-14T22:13:06.794Z,12.20
2023-05-14T22:15:34.509Z,12.20
2023-05-14T22:18:03.373Z,12.20
2023-05-14T22:20:30.513Z,12.30
2023-05-14T22:22:57.462Z,12.30
2023-05-14T22:25:24.812Z,12.30
2023-05-14T22:27:52.109Z,12.40
2023-05-14T22:30:19.174Z,12.40
2023-05-14T22:32:46.641Z,12.30
2023-05-14T22:35:13.737Z,12.20
2023-05-14T22:37:40.840Z,12.00
2023-05-14T22:40:09.247Z,11.80
2023-05-14T22:42:36.502Z,11.60
2023-05-14T22:45:03.583Z,11.50
2023-05-14T22:47:30.809Z,11.50
2023-05-14T22:49:57.842Z,11.60
2023-05-14T22:52:26.166Z,11.60
2023-05-14T22:54:53.364Z,11.60
2023-05-14T22:57:20.624Z,11.50
2023-05-14T22:59:47.791Z,11.50
2023-05-14T23:02:14.815Z,11.60
2023-05-14T23:04:41.785Z,11.50
2023-05-14T23:07:08.962Z,11.30
2023-05-14T23:09:36.027Z,11.30
2023-05-14T23:12:03.073Z,11.30
2023-05-14T23:14:30.108Z,11.40
2023-05-14T23:16:57.218Z,11.40
2023-05-14T23:19:24.327Z,11.40
2023-05-14T23:21:51.379Z,11.50
2023-05-14T23:24:18.514Z,11.30
2023-05-14T23:26:45.550Z,11.00
2023-05-14T23:29:12.509Z,10.90
2023-05-14T23:31:41.187Z,10.90
2023-05-14T23:34:08.267Z,11.00
2023-05-14T23:36:36.122Z,11.00
2023-05-14T23:39:03.148Z,11.10
2023-05-14T23:41:30.156Z,11.20
2023-05-14T23:43:57.224Z,11.20
2023-05-14T23:46:24.443Z,11.30
2023-05-14T23:48:52.268Z,11.30
2023-05-14T23:51:19.228Z,11.30
2023-05-14T23:53:46.230Z,11.40
2023-05-14T23:56:13.227Z,11.40
2023-05-14T23:58:40.302Z,11.40
